createdAt,value
2019-04-28T00:03:24.581Z,2.43
2019-04-28T00:08:46.247Z,2.48
2019-04-28T00:13:34.708Z,2.58
2019-04-28T00:18:47.415Z,2.35
2019-04-28T00:23:45.754Z,2.40
2019-04-28T00:30:04.824Z,2.54
2019-04-28T00:34:53.195Z,2.35
2019-04-28T00:40:11.238Z,2.40
2019-04-28T00:45:11.546Z,1.88
2019-04-28T00:50:18.128Z,2.43
2019-04-28T00:55:26.771Z,2.42
2019-04-28T01:05:50.754Z,2.37
2019-04-28T01:10:50.848Z,2.49
2019-04-28T01:15:49.689Z,2.14
2019-04-28T01:21:00.232Z,2.11
2019-04-28T01:26:00.051Z,2.38
2019-04-28T01:31:10.505Z,2.27
2019-04-28T01:36:10.376Z,2.18
2019-04-28T01:41:24.004Z,2.51
2019-04-28T01:46:22.391Z,2.32
2019-04-28T01:51:32.503Z,2.26
2019-04-28T01:56:31.125Z,2.02
2019-04-28T02:01:46.605Z,2.56
2019-04-28T02:06:44.956Z,2.16
2019-04-28T02:12:00.795Z,1.80
2019-04-28T02:17:00.539Z,2.19
2019-04-28T02:22:10.516Z,2.30
2019-04-28T02:27:24.205Z,2.35
2019-04-28T02:32:24.304Z,2.03
2019-04-28T02:37:31.234Z,2.28
2019-04-28T02:42:36.612Z,2.08
2019-04-28T02:47:35.110Z,1.88
2019-04-28T02:52:56.593Z,2.07
2019-04-28T02:57:45.009Z,2.23
2019-04-28T03:03:10.838Z,2.35
2019-04-28T03:07:56.183Z,1.95
2019-04-28T03:13:16.226Z,1.80
2019-04-28T03:18:04.582Z,2.41
2019-04-28T03:23:17.228Z,2.17
2019-04-28T03:28:15.369Z,1.78
2019-04-28T03:33:34.522Z,2.12
2019-04-28T03:38:30.978Z,2.42
2019-04-28T03:43:44.582Z,1.96
2019-04-28T03:48:42.916Z,1.84
2019-04-28T03:53:54.627Z,2.18
2019-04-28T03:58:53.464Z,1.94
2019-04-28T04:09:11.330Z,2.29
2019-04-28T04:14:27.188Z,2.33
2019-04-28T04:19:32.356Z,2.14
2019-04-28T04:24:44.042Z,1.98
2019-04-28T04:29:32.419Z,2.16
2019-04-28T04:34:44.940Z,2.30
2019-04-28T04:39:43.816Z,2.05
2019-04-28T04:44:55.734Z,2.05
2019-04-28T04:49:54.456Z,2.46
2019-04-28T04:55:15.585Z,2.44
2019-04-28T05:00:03.955Z,2.18
2019-04-28T05:05:25.679Z,2.29
2019-04-28T05:10:14.033Z,2.11
2019-04-28T05:15:34.190Z,1.93
2019-04-28T05:20:22.506Z,2.18
2019-04-28T05:25:39.578Z,2.65
2019-04-28T05:30:39.778Z,2.40
2019-04-28T05:35:59.289Z,2.36
2019-04-28T05:40:45.690Z,2.53
2019-04-28T05:46:00.769Z,2.94
2019-04-28T05:50:59.921Z,2.95
2019-04-28T05:56:14.132Z,2.79
2019-04-28T06:01:12.967Z,3.10
2019-04-28T06:06:21.474Z,3.07
2019-04-28T06:11:34.582Z,2.94
2019-04-28T06:21:34.906Z,3.60
2019-04-28T06:26:49.713Z,3.56
2019-04-28T06:31:48.395Z,5.25
2019-04-28T06:37:06.452Z,3.57
2019-04-28T06:42:08.839Z,3.46
2019-04-28T06:47:17.577Z,4.28
2019-04-28T06:52:15.950Z,3.32
2019-04-28T06:57:31.229Z,3.19
2019-04-28T07:02:29.989Z,3.52
2019-04-28T07:07:48.273Z,3.43
2019-04-28T07:12:46.727Z,3.09
2019-04-28T07:18:05.089Z,2.97
2019-04-28T07:23:12.600Z,2.65
2019-04-28T07:28:20.801Z,2.78
2019-04-28T07:33:35.511Z,2.83
2019-04-28T07:38:33.101Z,2.84
2019-04-28T07:43:33.297Z,2.99
2019-04-28T07:48:39.697Z,2.85
2019-04-28T07:53:42.857Z,3.24
2019-04-28T07:58:54.572Z,3.19
2019-04-28T08:03:49.726Z,3.44
2019-04-28T08:09:02.299Z,3.71
2019-04-28T08:13:59.024Z,2.97
2019-04-28T08:19:12.753Z,3.11
2019-04-28T08:24:01.764Z,2.82
2019-04-28T08:29:19.805Z,2.71
2019-04-28T08:34:25.995Z,2.50
2019-04-28T08:39:39.153Z,2.76
2019-04-28T08:44:27.605Z,2.71
2019-04-28T08:54:43.257Z,2.43
2019-04-28T09:00:00.791Z,3.06
2019-04-28T09:04:59.700Z,2.96
2019-04-28T09:10:11.918Z,2.69
2019-04-28T09:15:11.116Z,2.66
2019-04-28T09:20:26.638Z,2.95
2019-04-28T09:25:33.346Z,2.67
2019-04-28T09:30:45.212Z,2.74
2019-04-28T09:35:34.061Z,2.59
2019-04-28T09:40:55.625Z,2.99
2019-04-28T09:45:44.480Z,2.72
2019-04-28T09:51:06.388Z,2.49
2019-04-28T09:56:01.593Z,2.85
2019-04-28T10:01:13.095Z,2.97
2019-04-28T10:06:01.949Z,3.00
2019-04-28T10:11:29.685Z,2.67
2019-04-28T10:16:22.236Z,2.93
2019-04-28T10:21:34.841Z,3.44
2019-04-28T10:26:23.790Z,2.42
2019-04-28T10:31:45.821Z,2.73
2019-04-28T10:36:34.674Z,3.10
2019-04-28T10:41:50.170Z,3.16
2019-04-28T10:46:49.786Z,2.55
2019-04-28T10:52:13.919Z,2.31
2019-04-28T10:57:02.913Z,2.36
2019-04-28T11:02:18.607Z,2.96
2019-04-28T11:07:17.011Z,3.40
2019-04-28T11:12:38.760Z,3.16
2019-04-28T11:17:27.120Z,5.48
2019-04-28T11:22:36.889Z,2.89
2019-04-28T11:28:02.030Z,4.54
2019-04-28T11:32:58.548Z,3.59
2019-04-28T11:37:57.281Z,3.97
2019-04-28T11:43:16.792Z,3.52
2019-04-28T11:48:21.230Z,3.82
2019-04-28T11:53:32.863Z,3.81
2019-04-28T11:58:22.701Z,3.29
2019-04-28T12:03:44.138Z,3.94
2019-04-28T12:08:33.066Z,3.47
2019-04-28T12:13:49.433Z,2.95
2019-04-28T12:18:48.096Z,2.64
2019-04-28T12:24:09.986Z,2.46
2019-04-28T12:29:00.850Z,2.50
2019-04-28T12:39:28.196Z,2.40
2019-04-28T12:44:23.819Z,2.33
2019-04-28T12:49:30.624Z,3.53
2019-04-28T12:54:44.673Z,3.43
2019-04-28T12:59:30.812Z,3.58
2019-04-28T13:04:47.334Z,2.94
2019-04-28T13:09:46.253Z,2.93
2019-04-28T13:15:05.753Z,2.86
2019-04-28T13:20:08.033Z,3.30
2019-04-28T13:25:06.984Z,3.53
2019-04-28T13:30:20.720Z,2.79
2019-04-28T13:35:26.806Z,2.85
2019-04-28T13:40:31.878Z,2.72
2019-04-28T13:45:44.879Z,2.97
2019-04-28T13:50:32.855Z,3.04
2019-04-28T13:55:41.486Z,2.77
2019-04-28T14:00:58.208Z,2.43
2019-04-28T14:11:06.293Z,2.78
2019-04-28T14:16:04.815Z,2.53
2019-04-28T14:21:20.646Z,2.55
2019-04-28T14:26:32.015Z,2.42
2019-04-28T14:31:20.925Z,2.71
2019-04-28T14:36:42.313Z,2.51
2019-04-28T14:41:39.744Z,2.54
2019-04-28T14:46:55.207Z,2.69
2019-04-28T14:52:00.756Z,2.87
2019-04-28T14:56:59.734Z,3.01
2019-04-28T15:02:08.945Z,3.06
2019-04-28T15:07:19.667Z,2.92
2019-04-28T15:12:18.881Z,2.94
2019-04-28T15:22:34.975Z,2.49
2019-04-28T15:27:41.754Z,2.83
2019-04-28T15:32:40.131Z,2.41
2019-04-28T15:38:02.354Z,2.01
2019-04-28T15:42:51.189Z,1.95
2019-04-28T15:48:00.181Z,2.68
2019-04-28T15:53:16.555Z,1.77
2019-04-28T15:58:28.768Z,1.86
2019-04-28T16:03:17.645Z,2.78
2019-04-28T16:08:40.212Z,2.15
2019-04-28T16:13:28.414Z,2.12
2019-04-28T16:18:39.100Z,2.76
2019-04-28T16:23:44.713Z,1.70
2019-04-28T16:28:45.300Z,1.90
2019-04-28T16:33:48.837Z,1.60
2019-04-28T16:38:55.287Z,1.39
2019-04-28T16:43:54.292Z,1.53
2019-04-28T16:54:08.986Z,1.77
2019-04-28T16:59:20.929Z,1.47
2019-04-28T17:04:21.126Z,1.56
2019-04-28T17:09:27.352Z,1.74
2019-04-28T17:14:26.777Z,1.41
2019-04-28T17:19:49.286Z,1.54
2019-04-28T17:24:38.268Z,1.37
2019-04-28T17:30:00.841Z,2.02
2019-04-28T17:34:49.795Z,1.28
2019-04-28T17:40:06.414Z,1.21
2019-04-28T17:45:05.728Z,1.21
2019-04-28T17:50:28.293Z,1.46
2019-04-28T17:55:17.228Z,1.49
2019-04-28T18:00:38.637Z,1.88
2019-04-28T18:05:28.023Z,2.26
2019-04-28T18:10:42.700Z,1.22
2019-04-28T18:15:41.669Z,1.37
2019-04-28T18:21:03.886Z,1.32
2019-04-28T18:25:52.491Z,1.21
2019-04-28T18:31:08.431Z,1.24
2019-04-28T18:36:07.846Z,1.41
2019-04-28T18:41:24.557Z,1.40
2019-04-28T18:46:23.485Z,1.69
2019-04-28T18:51:39.800Z,1.64
2019-04-28T18:56:39.295Z,1.60
2019-04-28T19:01:54.924Z,1.79
2019-04-28T19:07:05.225Z,1.99
2019-04-28T19:12:05.001Z,1.82
2019-04-28T19:17:04.737Z,2.20
2019-04-28T19:22:27.460Z,1.97
2019-04-28T19:27:15.780Z,2.07
2019-04-28T19:32:35.550Z,2.03
2019-04-28T19:42:40.764Z,2.02
2019-04-28T19:47:49.724Z,1.98
2019-04-28T19:53:05.107Z,2.11
2019-04-28T19:58:05.117Z,2.10
2019-04-28T20:03:16.816Z,2.58
2019-04-28T20:08:05.203Z,2.16
2019-04-28T20:13:21.398Z,2.00
2019-04-28T20:18:20.286Z,2.11
2019-04-28T20:23:35.629Z,2.10
2019-04-28T20:28:34.322Z,2.34
2019-04-28T20:33:55.691Z,2.44
2019-04-28T20:38:44.645Z,2.74
2019-04-28T20:43:57.907Z,2.35
2019-04-28T20:48:56.771Z,2.26
2019-04-28T20:54:05.196Z,2.44
2019-04-28T20:59:20.368Z,2.46
2019-04-28T21:04:22.376Z,2.84
2019-04-28T21:14:28.908Z,2.71
2019-04-28T21:19:41.742Z,2.46
2019-04-28T21:24:56.301Z,2.62
2019-04-28T21:29:44.669Z,2.81
2019-04-28T21:35:00.810Z,2.85
2019-04-28T21:40:06.439Z,2.63
2019-04-28T21:45:19.177Z,2.97
2019-04-28T21:50:07.530Z,2.74
2019-04-28T21:55:23.848Z,2.65
2019-04-28T22:00:23.853Z,2.70
2019-04-28T22:05:30.436Z,2.80
2019-04-28T22:10:26.912Z,2.98
2019-04-28T22:15:36.051Z,3.05
2019-04-28T22:26:07.069Z,2.65
2019-04-28T22:30:55.428Z,3.10
2019-04-28T22:36:17.641Z,2.59
2019-04-28T22:41:05.984Z,3.11
2019-04-28T22:46:22.370Z,3.18
2019-04-28T22:51:20.744Z,3.07
2019-04-28T22:56:41.692Z,2.54
2019-04-28T23:01:30.075Z,2.77
2019-04-28T23:06:51.304Z,2.69
2019-04-28T23:11:39.732Z,3.91
2019-04-28T23:16:52.004Z,2.99
2019-04-28T23:21:51.980Z,2.68
2019-04-28T23:32:16.714Z,3.11
2019-04-28T23:37:28.597Z,3.70
2019-04-28T23:42:16.958Z,3.14
2019-04-28T23:47:38.483Z,3.06
2019-04-28T23:52:26.794Z,3.21
2019-04-28T23:57:51.158Z,2.97
